createdAt,value
2022-12-13T00:01:45.253Z,26.70
2022-12-13T00:04:13.797Z,25.90
2022-12-13T00:06:41.425Z,29.13
2022-12-13T00:09:10.291Z,27.50
2022-12-13T00:11:37.522Z,29.57
2022-12-13T00:14:04.783Z,27.53
2022-12-13T00:16:32.587Z,28.40
2022-12-13T00:19:01.131Z,29.00
2022-12-13T00:21:30.661Z,27.80
2022-12-13T00:23:59.237Z,28.07
2022-12-13T00:26:29.715Z,29.17
2022-12-13T00:28:58.808Z,28.37
2022-12-13T00:31:56.602Z,25.93
2022-12-13T00:34:14.375Z,25.93
2022-12-13T00:36:41.656Z,26.47
2022-12-13T00:39:12.793Z,28.57
2022-12-13T00:41:40.994Z,27.57
2022-12-13T00:44:09.448Z,26.20
2022-12-13T00:46:36.736Z,28.17
2022-12-13T00:49:04.887Z,26.53
2022-12-13T00:51:34.318Z,24.30
2022-12-13T00:54:02.973Z,28.30
2022-12-13T00:56:32.072Z,25.33
2022-12-13T00:58:59.928Z,25.07
2022-12-13T01:01:30.417Z,24.60
2022-12-13T01:04:01.484Z,26.30
2022-12-13T01:06:34.177Z,25.37
2022-12-13T01:09:05.712Z,26.57
2022-12-13T01:11:33.632Z,23.77
2022-12-13T01:14:00.850Z,24.30
2022-12-13T01:16:28.260Z,23.33
2022-12-13T01:18:57.997Z,24.83
2022-12-13T01:21:25.525Z,25.00
2022-12-13T01:23:52.941Z,24.23
2022-12-13T01:26:21.631Z,27.67
2022-12-13T01:28:49.525Z,25.80
2022-12-13T01:31:19.602Z,23.60
2022-12-13T01:33:47.390Z,23.90
2022-12-13T01:36:17.578Z,21.33
2022-12-13T01:38:44.949Z,21.90
2022-12-13T01:41:21.198Z,23.33
2022-12-13T01:44:00.822Z,24.47
2022-12-13T01:46:28.618Z,24.07
2022-12-13T01:49:19.402Z,26.60
2022-12-13T01:51:54.224Z,24.10
2022-12-13T01:54:33.328Z,24.63
2022-12-13T01:57:04.670Z,24.10
2022-12-13T01:59:34.067Z,24.47
2022-12-13T02:02:01.799Z,24.23
2022-12-13T02:04:34.464Z,22.43
2022-12-13T02:07:01.982Z,23.03
2022-12-13T02:09:29.271Z,22.60
2022-12-13T02:11:56.545Z,23.23
2022-12-13T02:14:23.847Z,22.93
2022-12-13T02:17:07.306Z,24.10
2022-12-13T02:20:06.469Z,24.47
2022-12-13T02:22:57.100Z,22.90
2022-12-13T02:25:28.567Z,22.17
2022-12-13T02:28:32.441Z,22.83
2022-12-13T02:31:02.902Z,22.43
2022-12-13T02:33:40.257Z,23.97
2022-12-13T02:36:36.382Z,22.73
2022-12-13T02:39:29.893Z,21.80
2022-12-13T02:42:04.928Z,21.87
2022-12-13T02:44:39.431Z,20.90
2022-12-13T02:47:27.739Z,23.43
2022-12-13T02:49:59.200Z,20.13
2022-12-13T02:52:28.835Z,19.97
2022-12-13T02:54:56.730Z,22.50
2022-12-13T02:57:32.354Z,19.20
2022-12-13T03:00:05.623Z,21.20
2022-12-13T03:02:51.693Z,21.47
2022-12-13T03:05:55.702Z,24.00
2022-12-13T03:08:31.801Z,22.87
2022-12-13T03:11:09.482Z,21.15
2022-12-13T03:13:45.926Z,21.80
2022-12-13T03:16:23.530Z,20.88
2022-12-13T03:18:55.025Z,18.43
2022-12-13T03:21:22.915Z,18.07
2022-12-13T03:23:50.398Z,19.33
2022-12-13T03:26:23.178Z,20.60
2022-12-13T03:28:51.499Z,18.30
2022-12-13T03:31:19.074Z,18.33
2022-12-13T03:33:47.736Z,18.03
2022-12-13T03:36:18.785Z,17.47
2022-12-13T03:38:54.315Z,18.40
2022-12-13T03:41:31.236Z,17.97
2022-12-13T03:44:00.521Z,19.07
2022-12-13T03:46:28.047Z,17.70
2022-12-13T03:49:01.656Z,18.27
2022-12-13T03:51:28.993Z,20.27
2022-12-13T03:53:56.247Z,21.20
2022-12-13T03:56:23.592Z,19.80
2022-12-13T03:58:58.031Z,19.27
2022-12-13T04:01:28.496Z,19.43
2022-12-13T04:03:55.867Z,18.80
2022-12-13T04:06:24.666Z,19.37
2022-12-13T04:08:54.785Z,21.50
2022-12-13T04:11:42.725Z,19.30
2022-12-13T04:14:12.056Z,19.50
2022-12-13T04:16:39.679Z,18.95
2022-12-13T04:19:07.587Z,18.50
2022-12-13T04:21:35.163Z,22.63
2022-12-13T04:24:02.429Z,19.47
2022-12-13T04:26:29.828Z,17.93
2022-12-13T04:28:57.079Z,17.43
2022-12-13T04:31:24.450Z,18.73
2022-12-13T04:33:51.951Z,18.55
2022-12-13T04:36:31.783Z,19.87
2022-12-13T04:39:02.109Z,19.95
2022-12-13T04:41:34.480Z,19.30
2022-12-13T04:44:03.148Z,18.48
2022-12-13T04:46:30.723Z,18.38
2022-12-13T04:48:57.946Z,18.45
2022-12-13T04:51:25.253Z,17.38
2022-12-13T04:53:52.527Z,18.35
2022-12-13T04:56:20.419Z,16.85
2022-12-13T04:58:47.641Z,17.55
2022-12-13T05:01:14.956Z,18.15
2022-12-13T05:03:42.313Z,16.13
2022-12-13T05:06:27.334Z,14.75
2022-12-13T05:09:00.921Z,14.02
2022-12-13T05:11:35.558Z,15.20
2022-12-13T05:14:03.602Z,16.70
2022-12-13T05:16:30.901Z,17.13
2022-12-13T05:18:58.205Z,15.37
2022-12-13T05:21:25.426Z,15.03
2022-12-13T05:23:52.664Z,15.53
2022-12-13T05:26:19.910Z,16.67
2022-12-13T05:28:47.590Z,15.73
2022-12-13T05:31:22.931Z,15.00
2022-12-13T05:36:19.395Z,16.83
2022-12-13T05:38:46.636Z,14.87
2022-12-13T05:41:17.189Z,14.77
2022-12-13T05:43:44.712Z,18.17
2022-12-13T05:46:15.086Z,14.30
2022-12-13T05:48:42.973Z,13.40
2022-12-13T05:51:11.858Z,15.63
2022-12-13T05:53:41.416Z,12.97
2022-12-13T05:56:10.993Z,16.63
2022-12-13T05:58:39.808Z,15.37
2022-12-13T06:01:09.748Z,14.67
2022-12-13T06:03:37.602Z,16.70
2022-12-13T06:06:06.681Z,14.87
2022-12-13T06:08:34.122Z,15.87
2022-12-13T06:11:10.952Z,14.05
2022-12-13T06:13:43.976Z,20.77
2022-12-13T06:16:23.043Z,14.50
2022-12-13T06:19:01.019Z,15.13
2022-12-13T06:21:41.561Z,13.50
2022-12-13T06:24:11.178Z,15.73
2022-12-13T06:26:38.535Z,13.60
2022-12-13T06:29:07.212Z,13.93
2022-12-13T06:31:34.506Z,14.03
2022-12-13T06:34:14.281Z,17.95
2022-12-13T06:36:43.322Z,13.95
2022-12-13T06:39:10.611Z,13.53
2022-12-13T06:41:38.012Z,13.13
2022-12-13T06:44:05.333Z,13.95
2022-12-13T06:46:33.208Z,13.07
2022-12-13T06:49:09.820Z,12.77
2022-12-13T06:51:37.126Z,11.40
2022-12-13T06:54:04.666Z,15.20
2022-12-13T06:56:32.728Z,14.37
2022-12-13T06:59:01.472Z,13.43
2022-12-13T07:01:36.954Z,14.75
2022-12-13T07:04:29.917Z,11.60
2022-12-13T07:07:02.339Z,13.95
2022-12-13T07:09:30.839Z,13.25
2022-12-13T07:11:59.113Z,12.15
2022-12-13T07:14:26.888Z,9.90
2022-12-13T07:17:01.388Z,10.15
2022-12-13T07:20:13.698Z,11.27
2022-12-13T07:22:47.204Z,13.13
2022-12-13T07:25:41.121Z,11.20
2022-12-13T07:28:09.428Z,14.98
2022-12-13T07:30:40.537Z,13.20
2022-12-13T07:33:09.381Z,17.40
2022-12-13T07:35:37.631Z,18.80
2022-12-13T07:38:07.791Z,15.93
2022-12-13T07:40:36.034Z,15.37
2022-12-13T07:43:04.656Z,14.60
2022-12-13T07:45:32.069Z,15.93
2022-12-13T07:48:05.416Z,14.47
2022-12-13T07:50:36.986Z,16.33
2022-12-13T07:53:07.048Z,13.07
2022-12-13T07:55:35.414Z,14.97
2022-12-13T07:58:11.371Z,15.75
2022-12-13T08:00:40.919Z,14.10
2022-12-13T08:03:24.632Z,15.30
2022-12-13T08:06:05.294Z,13.52
2022-12-13T08:08:33.468Z,13.10
2022-12-13T08:11:04.909Z,13.45
2022-12-13T08:13:33.317Z,12.90
2022-12-13T08:16:02.217Z,14.77
2022-12-13T08:18:30.769Z,13.23
2022-12-13T08:20:59.625Z,13.50
2022-12-13T08:23:27.886Z,14.13
2022-12-13T08:25:55.470Z,15.27
2022-12-13T08:28:24.042Z,16.47
2022-12-13T08:30:52.365Z,18.95
2022-12-13T08:33:20.637Z,15.48
2022-12-13T08:35:48.221Z,21.88
2022-12-13T08:38:23.840Z,17.67
2022-12-13T08:40:51.505Z,18.23
2022-12-13T08:43:19.479Z,18.20
2022-12-13T08:45:55.649Z,24.83
2022-12-13T08:51:01.552Z,18.38
2022-12-13T08:53:31.775Z,21.23
2022-12-13T08:56:11.740Z,18.30
2022-12-13T08:58:39.679Z,19.90
2022-12-13T09:01:08.590Z,23.70
2022-12-13T09:03:40.521Z,21.65
2022-12-13T09:06:08.809Z,22.73
2022-12-13T09:08:43.455Z,21.90
2022-12-13T09:11:20.643Z,21.20
2022-12-13T09:14:02.366Z,24.80
2022-12-13T09:16:35.532Z,23.05
2022-12-13T09:19:25.422Z,20.67
2022-12-13T09:21:52.657Z,21.02
2022-12-13T09:24:36.414Z,19.10
2022-12-13T09:27:09.161Z,20.30
2022-12-13T09:29:38.182Z,21.95
2022-12-13T09:32:06.325Z,22.13
2022-12-13T09:34:33.824Z,18.85
2022-12-13T09:37:02.020Z,17.65
2022-12-13T09:39:29.928Z,18.95
2022-12-13T09:42:01.450Z,17.70
2022-12-13T09:44:44.175Z,17.55
2022-12-13T09:47:47.261Z,16.42
2022-12-13T09:50:46.425Z,17.75
2022-12-13T09:53:22.402Z,17.73
2022-12-13T09:55:52.295Z,16.90
2022-12-13T09:58:38.083Z,17.33
2022-12-13T10:01:06.374Z,15.30
2022-12-13T10:03:34.710Z,16.42
2022-12-13T10:06:12.588Z,19.40
2022-12-13T10:08:57.852Z,16.83
2022-12-13T10:11:32.166Z,17.85
2022-12-13T10:14:09.955Z,17.45
2022-12-13T10:16:37.561Z,18.10
2022-12-13T10:19:29.058Z,17.25
2022-12-13T10:22:01.413Z,15.77
2022-12-13T10:24:57.515Z,14.30
2022-12-13T10:27:58.495Z,16.50
2022-12-13T10:30:29.093Z,15.63
2022-12-13T10:33:03.709Z,16.33
2022-12-13T10:35:41.582Z,15.13
2022-12-13T10:38:08.866Z,16.20
2022-12-13T10:40:38.446Z,18.63
2022-12-13T10:43:17.479Z,19.50
2022-12-13T10:46:00.320Z,15.43
2022-12-13T10:48:49.024Z,14.38
2022-12-13T10:51:21.971Z,17.60
2022-12-13T10:53:57.175Z,17.60
2022-12-13T10:56:35.837Z,14.68
2022-12-13T10:59:17.317Z,18.23
2022-12-13T11:01:45.291Z,16.05
2022-12-13T11:04:34.071Z,15.70
2022-12-13T11:07:21.943Z,16.17
2022-12-13T11:09:52.523Z,15.55
2022-12-13T11:12:23.821Z,16.08
2022-12-13T11:15:00.845Z,19.25
2022-12-13T11:17:30.738Z,18.23
2022-12-13T11:20:02.547Z,15.13
2022-12-13T11:22:35.923Z,19.13
2022-12-13T11:25:17.581Z,18.50
2022-12-13T11:28:27.781Z,17.02
2022-12-13T11:31:25.583Z,16.27
2022-12-13T11:34:17.839Z,18.05
2022-12-13T11:37:00.094Z,17.77
2022-12-13T11:39:39.252Z,20.73
2022-12-13T11:42:40.402Z,16.52
2022-12-13T11:45:22.737Z,15.20
2022-12-13T11:48:14.208Z,15.57
2022-12-13T11:50:46.000Z,15.77
2022-12-13T11:53:22.511Z,13.35
2022-12-13T11:55:59.172Z,16.35
2022-12-13T12:01:29.865Z,12.68
2022-12-13T12:04:13.917Z,15.18
2022-12-13T12:07:31.283Z,14.95
2022-12-13T12:10:13.865Z,20.42
2022-12-13T12:12:45.921Z,16.65
2022-12-13T12:15:26.994Z,14.18
2022-12-13T12:17:56.310Z,13.32
2022-12-13T12:20:44.714Z,12.32
2022-12-13T12:23:23.127Z,15.68
2022-12-13T12:26:01.203Z,16.77
2022-12-13T12:28:55.268Z,13.73
2022-12-13T12:32:07.039Z,11.73
2022-12-13T12:34:52.986Z,14.20
2022-12-13T12:37:51.899Z,13.20
2022-12-13T12:41:15.040Z,13.07
2022-12-13T12:43:34.675Z,15.43
2022-12-13T12:46:25.079Z,24.42
2022-12-13T12:49:02.254Z,18.20
2022-12-13T12:51:43.745Z,15.35
2022-12-13T12:54:31.952Z,12.25
2022-12-13T12:57:04.941Z,12.65
2022-12-13T12:59:41.353Z,12.98
2022-12-13T13:05:03.070Z,17.75
2022-12-13T13:07:40.073Z,16.00
2022-12-13T13:10:26.274Z,18.00
2022-12-13T13:13:12.211Z,18.27
2022-12-13T13:15:52.374Z,17.70
2022-12-13T13:18:59.633Z,18.08
2022-12-13T13:21:31.721Z,19.70
2022-12-13T13:24:01.875Z,20.02
2022-12-13T13:26:36.014Z,18.67
2022-12-13T13:29:26.701Z,18.17
2022-12-13T13:32:02.282Z,18.73
2022-12-13T13:34:36.667Z,17.33
2022-12-13T13:37:25.220Z,18.30
2022-12-13T13:39:57.135Z,16.05
2022-12-13T13:42:30.061Z,14.88
2022-12-13T13:45:03.461Z,14.05
2022-12-13T13:47:39.573Z,12.77
2022-12-13T13:50:21.379Z,11.82
2022-12-13T13:53:30.027Z,15.35
2022-12-13T13:56:15.029Z,12.48
2022-12-13T13:58:51.457Z,12.52
2022-12-13T14:04:38.868Z,13.65
2022-12-13T14:07:27.092Z,12.05
2022-12-13T14:10:23.523Z,13.15
2022-12-13T14:13:21.727Z,13.50
2022-12-13T14:16:01.633Z,10.93
2022-12-13T14:18:59.914Z,13.32
2022-12-13T14:21:30.136Z,11.88
2022-12-13T14:24:03.560Z,10.57
2022-12-13T14:26:57.502Z,12.30
2022-12-13T14:29:31.604Z,12.30
2022-12-13T14:31:59.421Z,10.77
2022-12-13T14:34:29.675Z,11.70
2022-12-13T14:37:20.061Z,12.40
2022-12-13T14:39:47.328Z,11.18
2022-12-13T14:42:33.843Z,10.10
2022-12-13T14:45:33.132Z,11.02
2022-12-13T14:48:04.255Z,9.80
2022-12-13T14:50:35.715Z,12.82
2022-12-13T14:53:04.002Z,12.82
2022-12-13T14:55:37.326Z,16.02
2022-12-13T14:58:17.670Z,15.13
2022-12-13T15:00:46.045Z,14.20
2022-12-13T15:03:23.586Z,15.20
2022-12-13T15:06:16.616Z,17.48
2022-12-13T15:08:46.448Z,14.57
2022-12-13T15:11:46.600Z,15.00
2022-12-13T15:14:20.717Z,12.80
2022-12-13T15:16:50.473Z,13.07
2022-12-13T15:19:31.116Z,12.43
2022-12-13T15:22:13.316Z,13.55
2022-12-13T15:24:50.157Z,15.18
2022-12-13T15:27:39.251Z,13.88
2022-12-13T15:30:07.283Z,15.85
2022-12-13T15:32:34.529Z,21.95
2022-12-13T15:35:17.287Z,14.73
2022-12-13T15:37:46.418Z,14.45
2022-12-13T15:40:15.017Z,19.50
2022-12-13T15:42:47.058Z,13.23
2022-12-13T15:45:34.814Z,15.90
2022-12-13T15:48:14.998Z,17.42
2022-12-13T15:50:47.286Z,17.05
2022-12-13T15:53:29.856Z,19.77
2022-12-13T15:56:06.201Z,17.88
2022-12-13T15:58:37.718Z,16.45
2022-12-13T16:01:07.672Z,14.77
2022-12-13T16:03:44.780Z,13.77
2022-12-13T16:06:20.044Z,16.92
2022-12-13T16:08:50.868Z,16.58
2022-12-13T16:11:28.315Z,15.85
2022-12-13T16:13:58.484Z,18.27
2022-12-13T16:16:32.242Z,20.17
2022-12-13T16:19:01.074Z,18.85
2022-12-13T16:21:28.895Z,16.73
2022-12-13T16:23:56.198Z,17.27
2022-12-13T16:26:28.717Z,22.35
2022-12-13T16:29:02.075Z,16.45
2022-12-13T16:31:36.008Z,20.00
2022-12-13T16:34:05.193Z,18.23
2022-12-13T16:36:32.971Z,16.85
2022-12-13T16:39:01.689Z,20.13
2022-12-13T16:41:30.867Z,18.98
2022-12-13T16:44:03.519Z,21.00
2022-12-13T16:47:11.731Z,14.05
2022-12-13T16:49:19.742Z,18.88
2022-12-13T16:51:48.863Z,15.85
2022-12-13T16:54:18.488Z,14.10
2022-12-13T16:59:53.278Z,15.77
2022-12-13T17:02:21.098Z,17.80
2022-12-13T17:04:48.497Z,17.67
2022-12-13T17:07:16.021Z,17.52
2022-12-13T17:12:44.179Z,19.25
2022-12-13T17:15:15.556Z,17.58
2022-12-13T17:17:45.196Z,17.55
2022-12-13T17:20:15.368Z,15.63
2022-12-13T17:22:44.960Z,18.27
2022-12-13T17:25:13.283Z,17.63
2022-12-13T17:27:41.478Z,15.95
2022-12-13T17:30:12.921Z,22.58
2022-12-13T17:32:40.304Z,14.88
2022-12-13T17:35:09.978Z,23.38
2022-12-13T17:37:51.361Z,15.05
2022-12-13T17:40:21.089Z,17.73
2022-12-13T17:42:52.283Z,16.63
2022-12-13T17:45:19.670Z,16.50
2022-12-13T17:47:47.394Z,17.63
2022-12-13T17:50:15.746Z,16.95
2022-12-13T17:52:43.079Z,14.45
2022-12-13T17:55:16.435Z,14.38
2022-12-13T17:57:45.280Z,19.33
2022-12-13T18:03:07.065Z,19.15
2022-12-13T18:05:36.831Z,16.67
2022-12-13T18:08:04.361Z,17.33
2022-12-13T18:10:31.677Z,17.13
2022-12-13T18:12:58.962Z,15.68
2022-12-13T18:15:34.722Z,14.18
2022-12-13T18:18:11.195Z,15.35
2022-12-13T18:20:41.722Z,10.95
2022-12-13T18:23:09.155Z,17.45
2022-12-13T18:25:36.883Z,13.15
2022-12-13T18:28:06.809Z,15.48
2022-12-13T18:30:34.111Z,19.13
2022-12-13T18:33:01.419Z,26.02
2022-12-13T18:35:29.310Z,20.23
2022-12-13T18:37:56.798Z,17.65
2022-12-13T18:40:27.344Z,18.33
2022-12-13T18:42:57.230Z,18.75
2022-12-13T18:45:24.526Z,21.65
2022-12-13T18:48:01.104Z,22.83
2022-12-13T18:50:28.442Z,23.33
2022-12-13T18:52:55.773Z,23.10
2022-12-13T18:55:25.515Z,20.48
2022-12-13T18:57:52.841Z,23.67
2022-12-13T19:00:20.581Z,22.58
2022-12-13T19:02:47.903Z,29.65
2022-12-13T19:05:16.538Z,24.67
2022-12-13T19:07:43.876Z,48.83
2022-12-13T19:10:11.096Z,48.38
2022-12-13T19:12:38.446Z,37.03
2022-12-13T19:15:06.581Z,35.78
2022-12-13T19:17:34.216Z,33.40
2022-12-13T19:20:02.326Z,34.90
2022-12-13T19:22:31.926Z,31.67
2022-12-13T19:24:59.188Z,30.27
2022-12-13T19:27:26.440Z,21.15
2022-12-13T19:29:53.769Z,17.33
2022-12-13T19:32:21.858Z,17.52
2022-12-13T19:34:49.185Z,17.73
2022-12-13T19:37:16.556Z,16.00
2022-12-13T19:39:46.325Z,15.38
2022-12-13T19:42:13.775Z,23.92
2022-12-13T19:44:43.544Z,20.63
2022-12-13T19:47:11.055Z,20.15
2022-12-13T19:49:39.530Z,21.75
2022-12-13T19:52:07.200Z,20.50
2022-12-13T19:54:34.511Z,19.67
2022-12-13T19:57:07.376Z,20.48
2022-12-13T19:59:34.892Z,20.00
2022-12-13T20:02:02.268Z,20.55
2022-12-13T20:04:30.414Z,24.45
2022-12-13T20:06:58.119Z,20.63
2022-12-13T20:09:25.396Z,28.65
2022-12-13T20:11:53.612Z,24.40
2022-12-13T20:14:21.128Z,25.70
2022-12-13T20:16:48.413Z,23.40
2022-12-13T20:19:15.853Z,30.70
2022-12-13T20:25:19.159Z,25.60
2022-12-13T20:27:46.596Z,21.85
2022-12-13T20:30:14.069Z,20.15
2022-12-13T20:32:44.682Z,23.58
2022-12-13T20:35:11.999Z,24.45
2022-12-13T20:37:39.294Z,22.05
2022-12-13T20:40:07.101Z,20.25
2022-12-13T20:42:34.412Z,24.45
2022-12-13T20:45:02.463Z,19.70
2022-12-13T20:47:33.809Z,24.20
2022-12-13T20:50:04.762Z,22.45
2022-12-13T20:52:34.608Z,20.25
2022-12-13T20:55:09.426Z,20.08
2022-12-13T20:57:38.728Z,17.08
2022-12-13T21:00:08.261Z,17.77
2022-12-13T21:02:49.564Z,14.80
2022-12-13T21:06:05.020Z,17.55
2022-12-13T21:08:52.905Z,21.30
2022-12-13T21:11:24.875Z,20.40
2022-12-13T21:13:58.244Z,18.83
2022-12-13T21:16:33.476Z,16.83
2022-12-13T21:19:02.247Z,21.25
2022-12-13T21:21:30.271Z,17.70
2022-12-13T21:23:58.170Z,18.50
2022-12-13T21:26:30.102Z,18.40
2022-12-13T21:29:03.191Z,21.35
2022-12-13T21:31:34.942Z,23.95
2022-12-13T21:37:48.277Z,21.27
2022-12-13T21:37:48.385Z,17.83
2022-12-13T21:40:15.880Z,19.02
2022-12-13T21:42:45.698Z,17.17
2022-12-13T21:45:13.061Z,19.20
2022-12-13T21:48:09.978Z,18.48
2022-12-13T21:50:38.520Z,16.52
2022-12-13T21:53:06.529Z,20.88
2022-12-13T21:55:41.193Z,20.40
2022-12-13T22:00:57.069Z,24.95
2022-12-13T22:03:24.640Z,20.80
2022-12-13T22:05:51.983Z,18.15
2022-12-13T22:08:19.394Z,22.35
2022-12-13T22:11:21.654Z,17.00
2022-12-13T22:13:51.084Z,21.23
2022-12-13T22:16:18.424Z,22.83
2022-12-13T22:18:46.561Z,20.75
2022-12-13T22:21:13.846Z,21.00
2022-12-13T22:23:43.517Z,20.35
2022-12-13T22:26:17.093Z,25.05
2022-12-13T22:28:55.500Z,21.58
2022-12-13T22:31:29.701Z,19.38
2022-12-13T22:33:58.001Z,18.50
2022-12-13T22:36:27.619Z,18.77
2022-12-13T22:38:54.909Z,18.50
2022-12-13T22:41:23.572Z,16.25
2022-12-13T22:43:51.000Z,18.42
2022-12-13T22:46:20.505Z,18.83
2022-12-13T22:48:47.869Z,14.05
2022-12-13T22:51:16.658Z,16.25
2022-12-13T22:53:47.591Z,15.05
2022-12-13T22:56:24.234Z,13.95
2022-12-13T22:58:56.394Z,15.95
2022-12-13T23:01:26.080Z,14.88
2022-12-13T23:03:53.806Z,15.02
2022-12-13T23:06:29.401Z,15.53
2022-12-13T23:09:03.575Z,17.10
2022-12-13T23:11:52.326Z,16.95
2022-12-13T23:14:25.623Z,19.60
2022-12-13T23:16:53.005Z,17.00
2022-12-13T23:22:15.527Z,13.18
2022-12-13T23:24:43.404Z,16.03
2022-12-13T23:27:13.273Z,13.97
2022-12-13T23:29:40.684Z,15.80
2022-12-13T23:32:10.138Z,13.77
2022-12-13T23:34:37.949Z,15.10
2022-12-13T23:37:05.341Z,13.55
2022-12-13T23:39:32.736Z,15.47
2022-12-13T23:42:00.029Z,12.82
2022-12-13T23:44:27.279Z,15.60
2022-12-13T23:46:55.251Z,13.83
2022-12-13T23:49:22.520Z,12.90
2022-12-13T23:51:49.801Z,13.43
2022-12-13T23:54:19.375Z,14.50
2022-12-13T23:56:47.911Z,16.08
2022-12-13T23:59:16.820Z,13.60
